createdAt,value
2022-09-01T00:00:38.564Z,2.58
2022-09-01T00:04:40.698Z,2.75
2022-09-01T00:08:42.851Z,2.53
2022-09-01T00:12:45.509Z,2.42
2022-09-01T00:16:47.649Z,2.42
2022-09-01T00:20:55.801Z,2.55
2022-09-01T00:24:57.993Z,2.65
2022-09-01T00:29:00.509Z,2.70
2022-09-01T00:33:02.634Z,3.00
2022-09-01T00:37:04.715Z,2.58
2022-09-01T00:41:07.715Z,2.50
2022-09-01T00:45:11.285Z,2.50
2022-09-01T00:49:16.005Z,2.58
2022-09-01T00:53:18.498Z,2.53
2022-09-01T00:57:20.621Z,2.38
2022-09-01T01:01:23.468Z,2.50
2022-09-01T01:05:32.976Z,2.70
2022-09-01T01:09:39.865Z,2.58
2022-09-01T01:13:51.221Z,2.75
2022-09-01T01:17:53.297Z,2.50
2022-09-01T01:22:15.200Z,2.53
2022-09-01T01:26:17.317Z,2.35
2022-09-01T01:30:20.797Z,2.28
2022-09-01T01:34:24.180Z,2.30
2022-09-01T01:38:27.470Z,2.78
2022-09-01T01:42:32.994Z,2.50
2022-09-01T01:46:37.015Z,2.13
2022-09-01T01:50:39.450Z,2.38
2022-09-01T01:54:42.997Z,2.35
2022-09-01T01:58:45.931Z,2.08
2022-09-01T02:02:52.815Z,2.40
2022-09-01T02:06:55.821Z,2.38
2022-09-01T02:11:00.118Z,2.10
2022-09-01T02:15:02.749Z,2.40
2022-09-01T02:19:08.895Z,2.97
2022-09-01T02:23:11.673Z,2.42
2022-09-01T02:27:15.692Z,2.30
2022-09-01T02:31:20.000Z,2.25
2022-09-01T02:35:22.119Z,2.08
2022-09-01T02:39:28.338Z,2.38
2022-09-01T02:43:32.078Z,2.05
2022-09-01T02:47:34.149Z,2.30
2022-09-01T02:51:39.202Z,2.17
2022-09-01T02:55:42.622Z,2.15
2022-09-01T02:59:45.535Z,2.20
2022-09-01T03:03:49.012Z,2.42
2022-09-01T03:07:57.875Z,2.20
2022-09-01T03:12:03.366Z,2.25
2022-09-01T03:16:07.320Z,2.50
2022-09-01T03:20:10.343Z,2.60
2022-09-01T03:24:15.355Z,2.42
2022-09-01T03:28:17.738Z,2.33
2022-09-01T03:32:19.788Z,2.45
2022-09-01T03:36:21.907Z,2.63
2022-09-01T03:40:24.200Z,2.00
2022-09-01T03:44:26.971Z,2.47
2022-09-01T03:48:31.613Z,2.20
2022-09-01T03:52:34.203Z,2.00
2022-09-01T03:56:41.030Z,1.95
2022-09-01T04:00:49.412Z,2.15
2022-09-01T04:04:52.574Z,2.30
2022-09-01T04:09:02.555Z,2.40
2022-09-01T04:13:11.668Z,2.03
2022-09-01T04:17:33.776Z,2.10
2022-09-01T04:21:39.012Z,2.30
2022-09-01T04:25:41.545Z,2.10
2022-09-01T04:29:46.729Z,2.20
2022-09-01T04:33:52.651Z,1.83
2022-09-01T04:37:55.912Z,2.20
2022-09-01T04:41:58.220Z,2.30
2022-09-01T04:46:01.206Z,2.40
2022-09-01T04:50:13.862Z,2.30
2022-09-01T04:54:19.382Z,2.40
2022-09-01T04:58:22.066Z,2.28
2022-09-01T05:02:27.170Z,1.90
2022-09-01T05:06:29.829Z,2.47
2022-09-01T05:10:36.064Z,2.30
2022-09-01T05:14:53.840Z,1.92
2022-09-01T05:18:57.816Z,2.38
2022-09-01T05:23:03.124Z,2.27
2022-09-01T05:27:06.594Z,2.40
2022-09-01T05:31:12.935Z,2.22
2022-09-01T05:35:15.450Z,2.20
2022-09-01T05:39:17.655Z,2.35
2022-09-01T05:43:19.712Z,2.38
2022-09-01T05:47:23.049Z,2.25
2022-09-01T05:51:44.266Z,2.75
2022-09-01T05:55:49.021Z,2.13
2022-09-01T05:59:53.751Z,2.40
2022-09-01T06:03:59.123Z,2.35
2022-09-01T06:12:18.086Z,2.38
2022-09-01T06:16:21.116Z,2.60
2022-09-01T06:20:24.526Z,2.70
2022-09-01T06:24:28.120Z,1.77
2022-09-01T06:28:30.340Z,1.60
2022-09-01T06:32:34.380Z,1.50
2022-09-01T06:36:40.363Z,1.20
2022-09-01T06:40:43.068Z,1.37
2022-09-01T06:44:47.070Z,0.90
2022-09-01T06:48:50.055Z,1.25
2022-09-01T07:02:01.513Z,1.20
2022-09-01T07:19:55.371Z,1.00
2022-09-01T07:24:10.267Z,0.70
2022-09-01T07:28:47.817Z,1.23
2022-09-01T07:32:50.475Z,0.90
2022-09-01T07:54:52.851Z,0.90
2022-09-01T07:58:55.000Z,0.98
2022-09-01T08:02:59.132Z,0.80
2022-09-01T08:07:01.709Z,1.05
2022-09-01T08:11:04.803Z,0.75
2022-09-01T08:15:13.887Z,0.77
2022-09-01T08:19:31.988Z,0.80
2022-09-01T08:23:44.393Z,1.00
2022-09-01T08:27:49.527Z,0.80
2022-09-01T08:31:53.625Z,1.00
2022-09-01T08:35:57.202Z,1.02
2022-09-01T08:40:00.419Z,0.90
2022-09-01T08:44:32.846Z,0.90
2022-09-01T08:53:15.916Z,0.90
2022-09-01T08:57:31.221Z,0.90
2022-09-01T09:02:05.337Z,0.90
2022-09-01T09:06:48.112Z,0.90
2022-09-01T09:11:10.690Z,0.90
2022-09-01T09:15:12.913Z,1.08
2022-09-01T09:19:32.374Z,0.88
2022-09-01T09:23:41.125Z,0.93
2022-09-01T09:27:48.978Z,1.10
2022-09-01T09:32:22.656Z,0.90
2022-09-01T09:36:36.030Z,0.90
2022-09-01T09:41:06.644Z,0.93
2022-09-01T09:45:00.556Z,0.77
2022-09-01T09:49:34.655Z,0.90
2022-09-01T09:53:39.147Z,0.90
2022-09-01T09:57:41.909Z,1.00
2022-09-01T10:01:44.054Z,0.88
2022-09-01T10:05:48.700Z,1.00
2022-09-01T10:09:52.518Z,0.90
2022-09-01T10:13:54.967Z,0.70
2022-09-01T10:18:21.050Z,1.00
2022-09-01T10:22:25.707Z,0.73
2022-09-01T10:26:35.214Z,0.80
2022-09-01T10:30:42.740Z,0.90
2022-09-01T10:34:47.362Z,0.75
2022-09-01T10:38:53.603Z,0.98
2022-09-01T10:42:59.431Z,0.88
2022-09-01T10:47:27.013Z,0.80
2022-09-01T10:51:36.366Z,1.00
2022-09-01T10:55:45.342Z,1.00
2022-09-01T10:59:56.391Z,0.85
2022-09-01T11:04:00.495Z,0.80
2022-09-01T11:08:23.134Z,0.93
2022-09-01T11:12:50.113Z,0.90
2022-09-01T11:17:10.963Z,1.00
2022-09-01T11:21:25.782Z,0.95
2022-09-01T11:25:48.583Z,0.80
2022-09-01T11:30:10.528Z,1.00
2022-09-01T11:34:19.879Z,0.90
2022-09-01T11:38:22.674Z,0.80
2022-09-01T11:42:48.061Z,0.82
2022-09-01T11:46:52.344Z,0.88
2022-09-01T11:51:01.646Z,0.88
2022-09-01T11:55:06.493Z,0.77
2022-09-01T11:59:08.542Z,1.10
2022-09-01T12:03:23.305Z,0.93
2022-09-01T12:07:47.469Z,0.95
2022-09-01T12:11:51.171Z,0.90
2022-09-01T12:16:18.268Z,1.00
2022-09-01T12:24:35.336Z,0.90
2022-09-01T12:28:41.555Z,0.90
2022-09-01T12:32:43.978Z,0.90
2022-09-01T12:37:16.794Z,1.13
2022-09-01T12:41:31.270Z,1.00
2022-09-01T12:45:39.008Z,1.00
2022-09-01T12:49:50.778Z,1.20
2022-09-01T12:53:58.533Z,1.00
2022-09-01T12:58:04.878Z,1.17
2022-09-01T13:02:34.140Z,1.50
2022-09-01T13:06:36.565Z,1.00
2022-09-01T13:10:47.522Z,1.10
2022-09-01T13:14:49.720Z,1.17
2022-09-01T13:23:13.930Z,1.10
2022-09-01T13:27:23.342Z,1.00
2022-09-01T13:31:29.502Z,0.90
2022-09-01T13:35:31.913Z,1.00
2022-09-01T13:39:33.973Z,0.90
2022-09-01T13:43:36.048Z,1.05
2022-09-01T13:48:15.274Z,0.90
2022-09-01T13:52:00.279Z,1.50
2022-09-01T13:56:02.523Z,1.38
2022-09-01T14:00:08.269Z,1.40
2022-09-01T14:04:12.777Z,0.90
2022-09-01T14:08:18.166Z,0.75
2022-09-01T14:12:20.342Z,1.00
2022-09-01T14:16:22.492Z,0.95
2022-09-01T14:20:36.996Z,0.80
2022-09-01T14:24:40.938Z,0.80
2022-09-01T14:28:48.503Z,0.95
2022-09-01T14:32:52.305Z,0.93
2022-09-01T14:36:56.513Z,0.90
2022-09-01T14:40:58.587Z,1.00
2022-09-01T14:45:01.953Z,0.90
2022-09-01T14:49:04.618Z,0.90
2022-09-01T14:53:06.817Z,0.95
2022-09-01T15:01:34.658Z,0.98
2022-09-01T15:05:39.952Z,0.95
2022-09-01T15:09:42.597Z,1.13
2022-09-01T15:13:45.737Z,1.00
2022-09-01T15:17:47.809Z,1.10
2022-09-01T15:21:50.126Z,1.13
2022-09-01T15:25:54.669Z,1.33
2022-09-01T15:29:57.872Z,1.00
2022-09-01T15:34:02.398Z,0.90
2022-09-01T15:38:06.956Z,0.80
2022-09-01T15:42:08.996Z,0.98
2022-09-01T15:46:12.070Z,0.85
2022-09-01T15:50:21.867Z,0.90
2022-09-01T15:54:30.211Z,1.25
2022-09-01T15:58:59.521Z,1.10
2022-09-01T16:02:57.711Z,0.80
2022-09-01T16:06:59.948Z,0.88
2022-09-01T16:11:09.657Z,1.00
2022-09-01T16:15:14.386Z,1.05
2022-09-01T16:19:30.801Z,1.05
2022-09-01T16:23:41.753Z,1.08
2022-09-01T16:27:45.770Z,0.85
2022-09-01T16:31:53.756Z,1.02
2022-09-01T16:36:17.583Z,1.10
2022-09-01T16:40:39.543Z,0.93
2022-09-01T16:45:04.245Z,1.00
2022-09-01T16:49:52.021Z,1.10
2022-09-01T16:54:10.229Z,0.80
2022-09-01T16:58:29.076Z,0.90
2022-09-01T17:02:38.030Z,1.48
2022-09-01T17:06:57.665Z,1.27
2022-09-01T17:11:18.511Z,0.77
2022-09-01T17:15:36.257Z,1.50
2022-09-01T17:19:40.902Z,0.88
2022-09-01T17:24:04.908Z,1.00
2022-09-01T17:28:27.476Z,1.00
2022-09-01T17:32:48.433Z,0.88
2022-09-01T17:37:22.960Z,0.90
2022-09-01T17:41:40.188Z,1.10
2022-09-01T17:45:58.437Z,1.00
2022-09-01T17:50:12.020Z,0.80
2022-09-01T17:54:30.886Z,0.85
2022-09-01T18:03:45.399Z,0.80
2022-09-01T18:08:21.514Z,0.80
2022-09-01T18:12:28.267Z,1.00
2022-09-01T18:16:36.327Z,0.80
2022-09-01T18:20:46.730Z,0.80
2022-09-01T18:25:07.967Z,0.63
2022-09-01T18:29:10.017Z,0.68
2022-09-01T18:33:25.431Z,0.90
2022-09-01T18:37:58.444Z,0.90
2022-09-01T18:42:16.383Z,0.65
2022-09-01T18:46:33.104Z,0.80
2022-09-01T18:50:45.401Z,0.70
2022-09-01T18:55:13.844Z,0.80
2022-09-01T18:59:45.400Z,0.68
2022-09-01T19:03:58.345Z,0.70
2022-09-01T19:08:21.873Z,0.70
2022-09-01T19:12:35.659Z,0.80
2022-09-01T19:17:03.795Z,0.70
2022-09-01T19:21:13.811Z,0.77
2022-09-01T19:25:34.377Z,0.70
2022-09-01T19:29:45.260Z,0.95
2022-09-01T19:33:54.071Z,0.70
2022-09-01T19:37:56.138Z,0.80
2022-09-01T19:42:10.950Z,0.73
2022-09-01T19:46:31.509Z,0.75
2022-09-01T19:50:47.379Z,0.63
2022-09-01T19:55:01.109Z,0.80
2022-09-01T19:59:27.570Z,0.70
2022-09-01T20:03:37.291Z,0.50
2022-09-01T20:07:54.482Z,0.60
2022-09-01T20:12:17.434Z,0.60
2022-09-01T20:16:38.466Z,0.70
2022-09-01T20:20:48.565Z,0.90
2022-09-01T20:24:51.956Z,0.60
2022-09-01T20:29:10.923Z,0.80
2022-09-01T20:33:31.164Z,0.90
2022-09-01T20:38:30.708Z,0.80
2022-09-01T20:43:06.536Z,0.73
2022-09-01T20:47:09.241Z,0.70
2022-09-01T20:51:11.805Z,0.80
2022-09-01T20:55:23.919Z,0.80
2022-09-01T20:59:39.601Z,0.60
2022-09-01T21:04:18.301Z,0.80
2022-09-01T21:08:47.149Z,0.70
2022-09-01T21:13:25.143Z,0.77
2022-09-01T21:22:05.045Z,0.90
2022-09-01T21:26:07.636Z,0.65
2022-09-01T21:30:13.219Z,0.82
2022-09-01T21:34:17.071Z,0.90
2022-09-01T21:38:19.533Z,0.80
2022-09-01T21:42:30.428Z,0.90
2022-09-01T21:46:32.754Z,0.80
2022-09-01T21:50:34.837Z,0.60
2022-09-01T21:54:37.221Z,1.20
2022-09-01T21:58:39.720Z,0.63
2022-09-01T22:02:42.690Z,0.80
2022-09-01T22:06:46.105Z,1.00
2022-09-01T22:10:50.423Z,0.75
2022-09-01T22:14:52.671Z,0.90
2022-09-01T22:18:54.725Z,0.68
2022-09-01T22:23:01.966Z,0.85
2022-09-01T22:27:04.187Z,0.90
2022-09-01T22:31:07.127Z,0.80
2022-09-01T22:35:11.117Z,0.80
2022-09-01T22:39:14.446Z,0.77
2022-09-01T22:43:17.863Z,0.88
2022-09-01T22:47:19.973Z,0.80
2022-09-01T22:51:22.178Z,0.65
2022-09-01T22:55:24.327Z,0.80
2022-09-01T22:59:26.369Z,0.80
2022-09-01T23:03:28.562Z,1.00
2022-09-01T23:07:30.639Z,0.85
2022-09-01T23:11:32.761Z,1.08
2022-09-01T23:15:34.866Z,0.90
2022-09-01T23:19:36.942Z,0.80
2022-09-01T23:23:40.059Z,0.93
2022-09-01T23:27:44.267Z,0.82
2022-09-01T23:31:46.428Z,0.90
2022-09-01T23:35:55.206Z,0.90
2022-09-01T23:39:57.455Z,0.80
2022-09-01T23:44:02.804Z,0.95
2022-09-01T23:48:05.035Z,0.90
2022-09-01T23:52:07.411Z,0.68
2022-09-01T23:56:15.268Z,0.95
